Terminal Aerodrome Forecast
Issued by NWS

Home | Current Version | Previous Version | Text Only | Print | Product List | Glossary On
Versions: 1 2 3 4 5 6 7 8 9 10 11 12 13 14 15 16 17 18 19 20 21 22 23
000
FTUS42 KMHX 262000 AAA
TAFOAJ
TAF AMD
KOAJ 262012Z 2620/2718 32008KT 6SM BR SCT007 OVC015
      TEMPO 2620/2622 2SM -DZ BKN007
     FM262200 31008KT P6SM BKN020
     FM270300 VRB02KT P6SM SCT025 BKN050
     FM270800 VRB02KT 4SM BR BKN010
     FM271500 25008G15KT P6SM BKN050
      AMD LTD TO CLD VIS AND WIND=

USA.gov is the U.S. government's official web portal to all federal, state and local government web resources and services.